sensor_id;sensor_type;location;lat;lon;timestamp;pressure;altitude;pressure_sealevel;temperature;humidity
31331;BME280;34067;39.548;-76.088;2023-03-13T00:01:33;101491.71;;;4.67;55.79
31331;BME280;34067;39.548;-76.088;2023-03-13T00:04:02;101480.80;;;5.12;55.63
31331;BME280;34067;39.548;-76.088;2023-03-13T00:06:33;101477.82;;;5.32;55.60
31331;BME280;34067;39.548;-76.088;2023-03-13T00:09:02;101488.40;;;5.02;56.14
31331;BME280;34067;39.548;-76.088;2023-03-13T00:11:31;101488.99;;;5.18;56.42
31331;BME280;34067;39.548;-76.088;2023-03-13T00:14:01;101489.74;;;5.11;56.60
31331;BME280;34067;39.548;-76.088;2023-03-13T00:16:31;101489.12;;;5.76;55.65
31331;BME280;34067;39.548;-76.088;2023-03-13T00:18:59;101494.07;;;5.15;55.75
31331;BME280;34067;39.548;-76.088;2023-03-13T00:21:28;101489.63;;;4.73;56.46
31331;BME280;34067;39.548;-76.088;2023-03-13T00:23:59;101490.16;;;5.58;55.52
31331;BME280;34067;39.548;-76.088;2023-03-13T00:26:28;101491.99;;;5.23;54.85
31331;BME280;34067;39.548;-76.088;2023-03-13T00:28:57;101496.17;;;5.74;54.66
31331;BME280;34067;39.548;-76.088;2023-03-13T00:31:26;101498.92;;;6.29;54.72
31331;BME280;34067;39.548;-76.088;2023-03-13T00:33:58;101508.34;;;5.87;54.59
31331;BME280;34067;39.548;-76.088;2023-03-13T00:36:28;101511.80;;;6.51;53.90
31331;BME280;34067;39.548;-76.088;2023-03-13T00:38:58;101508.63;;;4.53;56.59
31331;BME280;34067;39.548;-76.088;2023-03-13T00:41:28;101501.99;;;5.06;55.58
31331;BME280;34067;39.548;-76.088;2023-03-13T00:43:57;101492.96;;;5.41;54.59
31331;BME280;34067;39.548;-76.088;2023-03-13T00:46:27;101486.48;;;5.03;55.19
31331;BME280;34067;39.548;-76.088;2023-03-13T00:48:57;101480.29;;;5.35;54.83
31331;BME280;34067;39.548;-76.088;2023-03-13T00:51:25;101481.78;;;5.24;55.78
31331;BME280;34067;39.548;-76.088;2023-03-13T00:53:54;101479.79;;;4.45;58.00
31331;BME280;34067;39.548;-76.088;2023-03-13T00:56:22;101468.57;;;5.48;56.22
31331;BME280;34067;39.548;-76.088;2023-03-13T00:58:50;101467.31;;;4.50;56.43
31331;BME280;34067;39.548;-76.088;2023-03-13T01:01:21;101460.99;;;5.54;55.02
31331;BME280;34067;39.548;-76.088;2023-03-13T01:03:52;101461.57;;;4.83;55.97
31331;BME280;34067;39.548;-76.088;2023-03-13T01:06:23;101462.26;;;5.20;56.61
31331;BME280;34067;39.548;-76.088;2023-03-13T01:08:52;101465.70;;;4.87;55.92
31331;BME280;34067;39.548;-76.088;2023-03-13T01:11:23;101468.04;;;5.05;56.97
31331;BME280;34067;39.548;-76.088;2023-03-13T01:13:55;101466.44;;;4.54;56.93
31331;BME280;34067;39.548;-76.088;2023-03-13T01:16:24;101462.44;;;4.67;57.18
31331;BME280;34067;39.548;-76.088;2023-03-13T01:18:55;101461.07;;;4.27;57.41
31331;BME280;34067;39.548;-76.088;2023-03-13T01:21:24;101460.04;;;4.69;57.44
31331;BME280;34067;39.548;-76.088;2023-03-13T01:23:53;101465.07;;;3.95;57.44
31331;BME280;34067;39.548;-76.088;2023-03-13T01:26:22;101470.80;;;4.81;56.30
31331;BME280;34067;39.548;-76.088;2023-03-13T01:28:52;101467.87;;;5.16;55.54
31331;BME280;34067;39.548;-76.088;2023-03-13T01:31:21;101468.81;;;5.78;55.15
31331;BME280;34067;39.548;-76.088;2023-03-13T01:33:54;101469.25;;;5.22;55.37
31331;BME280;34067;39.548;-76.088;2023-03-13T01:36:23;101473.72;;;4.99;55.91
31331;BME280;34067;39.548;-76.088;2023-03-13T01:38:53;101481.48;;;5.03;55.55
31331;BME280;34067;39.548;-76.088;2023-03-13T01:41:23;101489.86;;;5.28;55.08
31331;BME280;34067;39.548;-76.088;2023-03-13T01:43:51;101489.98;;;5.67;54.96
31331;BME280;34067;39.548;-76.088;2023-03-13T01:46:21;101489.94;;;5.63;55.28
31331;BME280;34067;39.548;-76.088;2023-03-13T01:48:51;101500.68;;;5.00;56.37
31331;BME280;34067;39.548;-76.088;2023-03-13T01:51:25;101496.98;;;5.56;55.97
31331;BME280;34067;39.548;-76.088;2023-03-13T01:53:59;101498.17;;;5.77;55.91
31331;BME280;34067;39.548;-76.088;2023-03-13T01:56:36;101499.16;;;5.94;56.36
31331;BME280;34067;39.548;-76.088;2023-03-13T01:59:08;101497.38;;;4.17;58.39
31331;BME280;34067;39.548;-76.088;2023-03-13T02:01:39;101485.74;;;4.37;58.29
31331;BME280;34067;39.548;-76.088;2023-03-13T02:04:08;101480.94;;;5.16;57.62
31331;BME280;34067;39.548;-76.088;2023-03-13T02:06:38;101480.89;;;5.70;57.09
31331;BME280;34067;39.548;-76.088;2023-03-13T02:09:11;101479.18;;;6.11;56.60
31331;BME280;34067;39.548;-76.088;2023-03-13T02:11:46;101479.06;;;5.11;56.76
31331;BME280;34067;39.548;-76.088;2023-03-13T02:14:17;101471.05;;;5.67;56.91
31331;BME280;34067;39.548;-76.088;2023-03-13T02:16:47;101466.24;;;4.17;59.42
31331;BME280;34067;39.548;-76.088;2023-03-13T02:19:19;101468.28;;;4.96;59.27
31331;BME280;34067;39.548;-76.088;2023-03-13T02:21:56;101467.26;;;4.52;59.68
31331;BME280;34067;39.548;-76.088;2023-03-13T02:24:36;101460.21;;;4.38;60.09
31331;BME280;34067;39.548;-76.088;2023-03-13T02:27:07;101457.10;;;2.68;63.14
31331;BME280;34067;39.548;-76.088;2023-03-13T02:29:35;101450.54;;;4.16;60.71
31331;BME280;34067;39.548;-76.088;2023-03-13T02:32:04;101446.05;;;5.15;59.50
31331;BME280;34067;39.548;-76.088;2023-03-13T02:34:34;101443.45;;;4.76;59.88
31331;BME280;34067;39.548;-76.088;2023-03-13T02:37:07;101438.69;;;4.45;60.24
31331;BME280;34067;39.548;-76.088;2023-03-13T02:39:35;101435.39;;;5.02;58.70
31331;BME280;34067;39.548;-76.088;2023-03-13T02:42:06;101428.13;;;5.44;58.25
31331;BME280;34067;39.548;-76.088;2023-03-13T02:44:38;101431.93;;;4.53;60.12
31331;BME280;34067;39.548;-76.088;2023-03-13T02:47:07;101430.42;;;4.94;59.83
31331;BME280;34067;39.548;-76.088;2023-03-13T02:49:35;101427.29;;;4.94;60.49
31331;BME280;34067;39.548;-76.088;2023-03-13T02:52:09;101427.58;;;5.24;59.97
31331;BME280;34067;39.548;-76.088;2023-03-13T02:54:40;101427.94;;;5.34;60.35
31331;BME280;34067;39.548;-76.088;2023-03-13T02:57:09;101432.03;;;4.67;61.28
31331;BME280;34067;39.548;-76.088;2023-03-13T02:59:38;101438.61;;;3.90;62.57
31331;BME280;34067;39.548;-76.088;2023-03-13T03:02:06;101434.42;;;4.32;61.36
31331;BME280;34067;39.548;-76.088;2023-03-13T03:04:35;101431.28;;;5.27;59.24
31331;BME280;34067;39.548;-76.088;2023-03-13T03:07:03;101432.82;;;5.64;58.75
31331;BME280;34067;39.548;-76.088;2023-03-13T03:09:31;101433.79;;;5.17;59.42
31331;BME280;34067;39.548;-76.088;2023-03-13T03:12:00;101432.65;;;5.54;58.98
31331;BME280;34067;39.548;-76.088;2023-03-13T03:14:29;101427.54;;;6.05;57.59
31331;BME280;34067;39.548;-76.088;2023-03-13T03:16:58;101428.08;;;5.28;57.87
31331;BME280;34067;39.548;-76.088;2023-03-13T03:19:25;101425.37;;;6.41;56.59
31331;BME280;34067;39.548;-76.088;2023-03-13T03:21:54;101423.78;;;6.14;56.35
31331;BME280;34067;39.548;-76.088;2023-03-13T03:24:23;101422.75;;;5.78;57.12
31331;BME280;34067;39.548;-76.088;2023-03-13T03:26:50;101420.35;;;5.46;58.06
31331;BME280;34067;39.548;-76.088;2023-03-13T03:29:18;101425.56;;;4.65;58.98
31331;BME280;34067;39.548;-76.088;2023-03-13T03:31:47;101425.84;;;4.79;59.37
31331;BME280;34067;39.548;-76.088;2023-03-13T03:34:15;101425.10;;;5.45;58.57
31331;BME280;34067;39.548;-76.088;2023-03-13T03:36:43;101427.22;;;5.30;58.91
31331;BME280;34067;39.548;-76.088;2023-03-13T03:39:11;101422.46;;;5.72;58.16
31331;BME280;34067;39.548;-76.088;2023-03-13T03:41:40;101421.39;;;6.01;57.55
31331;BME280;34067;39.548;-76.088;2023-03-13T03:44:08;101421.87;;;6.00;57.31
31331;BME280;34067;39.548;-76.088;2023-03-13T03:46:36;101425.58;;;5.68;57.95
31331;BME280;34067;39.548;-76.088;2023-03-13T03:49:04;101424.84;;;5.85;57.41
31331;BME280;34067;39.548;-76.088;2023-03-13T03:51:32;101425.38;;;4.99;58.41
31331;BME280;34067;39.548;-76.088;2023-03-13T03:54:01;101419.12;;;5.75;57.12
31331;BME280;34067;39.548;-76.088;2023-03-13T03:56:28;101422.27;;;6.24;57.19
31331;BME280;34067;39.548;-76.088;2023-03-13T03:58:57;101416.87;;;5.79;56.34
31331;BME280;34067;39.548;-76.088;2023-03-13T04:01:25;101422.31;;;5.73;55.97
31331;BME280;34067;39.548;-76.088;2023-03-13T04:03:55;101426.38;;;5.32;56.67
31331;BME280;34067;39.548;-76.088;2023-03-13T04:06:23;101426.13;;;6.06;55.78
31331;BME280;34067;39.548;-76.088;2023-03-13T04:08:51;101427.41;;;5.94;55.88
31331;BME280;34067;39.548;-76.088;2023-03-13T04:11:20;101424.26;;;6.47;54.81
31331;BME280;34067;39.548;-76.088;2023-03-13T04:13:48;101421.67;;;6.35;55.22
31331;BME280;34067;39.548;-76.088;2023-03-13T04:16:17;101419.33;;;6.33;55.21
31331;BME280;34067;39.548;-76.088;2023-03-13T04:18:45;101417.87;;;5.91;55.28
31331;BME280;34067;39.548;-76.088;2023-03-13T04:21:13;101419.68;;;6.30;55.75
31331;BME280;34067;39.548;-76.088;2023-03-13T04:23:40;101416.75;;;6.23;55.90
31331;BME280;34067;39.548;-76.088;2023-03-13T04:26:09;101415.73;;;5.90;55.99
31331;BME280;34067;39.548;-76.088;2023-03-13T04:28:36;101418.14;;;5.60;55.83
31331;BME280;34067;39.548;-76.088;2023-03-13T04:31:05;101421.63;;;5.71;57.18
31331;BME280;34067;39.548;-76.088;2023-03-13T04:33:33;101414.40;;;5.66;56.12
31331;BME280;34067;39.548;-76.088;2023-03-13T04:36:00;101415.51;;;5.56;55.48
31331;BME280;34067;39.548;-76.088;2023-03-13T04:38:29;101412.63;;;6.23;54.87
31331;BME280;34067;39.548;-76.088;2023-03-13T04:40:57;101407.96;;;6.20;54.64
31331;BME280;34067;39.548;-76.088;2023-03-13T04:43:26;101404.03;;;6.09;54.19
31331;BME280;34067;39.548;-76.088;2023-03-13T04:45:54;101402.51;;;6.13;53.90
31331;BME280;34067;39.548;-76.088;2023-03-13T04:48:22;101400.15;;;5.94;53.68
31331;BME280;34067;39.548;-76.088;2023-03-13T04:50:50;101396.25;;;5.74;53.88
31331;BME280;34067;39.548;-76.088;2023-03-13T04:53:18;101393.47;;;5.91;52.89
31331;BME280;34067;39.548;-76.088;2023-03-13T04:55:48;101394.27;;;6.16;52.72
31331;BME280;34067;39.548;-76.088;2023-03-13T04:58:17;101392.81;;;5.74;53.37
31331;BME280;34067;39.548;-76.088;2023-03-13T05:03:09;101393.50;;;5.83;54.55
31331;BME280;34067;39.548;-76.088;2023-03-13T05:05:38;101389.77;;;6.21;54.51
31331;BME280;34067;39.548;-76.088;2023-03-13T05:08:06;101384.84;;;5.65;55.55
31331;BME280;34067;39.548;-76.088;2023-03-13T05:10:34;101385.76;;;5.70;56.04
31331;BME280;34067;39.548;-76.088;2023-03-13T05:13:02;101387.79;;;5.42;57.13
31331;BME280;34067;39.548;-76.088;2023-03-13T05:15:30;101383.82;;;5.54;56.60
31331;BME280;34067;39.548;-76.088;2023-03-13T05:17:58;101389.62;;;4.95;57.91
31331;BME280;34067;39.548;-76.088;2023-03-13T05:20:26;101389.65;;;4.98;58.45
31331;BME280;34067;39.548;-76.088;2023-03-13T05:22:55;101389.76;;;5.02;57.41
31331;BME280;34067;39.548;-76.088;2023-03-13T05:25:23;101392.39;;;5.02;58.29
31331;BME280;34067;39.548;-76.088;2023-03-13T05:27:52;101391.22;;;4.84;58.92
31331;BME280;34067;39.548;-76.088;2023-03-13T05:30:20;101392.25;;;5.18;59.22
31331;BME280;34067;39.548;-76.088;2023-03-13T05:32:48;101389.12;;;5.18;59.00
31331;BME280;34067;39.548;-76.088;2023-03-13T05:35:16;101388.05;;;4.41;59.21
31331;BME280;34067;39.548;-76.088;2023-03-13T05:37:45;101383.71;;;5.54;58.78
31331;BME280;34067;39.548;-76.088;2023-03-13T05:40:13;101388.02;;;5.17;58.62
31331;BME280;34067;39.548;-76.088;2023-03-13T05:42:41;101388.48;;;5.35;57.88
31331;BME280;34067;39.548;-76.088;2023-03-13T05:45:11;101390.82;;;5.72;57.74
31331;BME280;34067;39.548;-76.088;2023-03-13T05:47:39;101390.47;;;5.60;58.34
31331;BME280;34067;39.548;-76.088;2023-03-13T05:50:08;101391.38;;;5.37;58.29
31331;BME280;34067;39.548;-76.088;2023-03-13T05:52:36;101390.94;;;5.55;58.67
31331;BME280;34067;39.548;-76.088;2023-03-13T05:55:05;101386.83;;;5.82;57.89
31331;BME280;34067;39.548;-76.088;2023-03-13T05:57:33;101388.41;;;5.51;58.06
31331;BME280;34067;39.548;-76.088;2023-03-13T06:00:02;101391.40;;;5.10;59.04
31331;BME280;34067;39.548;-76.088;2023-03-13T06:02:30;101391.55;;;5.24;58.73
31331;BME280;34067;39.548;-76.088;2023-03-13T06:04:57;101391.71;;;5.26;59.10
31331;BME280;34067;39.548;-76.088;2023-03-13T06:07:25;101389.11;;;5.43;59.27
31331;BME280;34067;39.548;-76.088;2023-03-13T06:09:53;101382.97;;;5.49;58.74
31331;BME280;34067;39.548;-76.088;2023-03-13T06:12:20;101389.05;;;5.39;59.16
31331;BME280;34067;39.548;-76.088;2023-03-13T06:14:49;101391.60;;;5.63;59.92
31331;BME280;34067;39.548;-76.088;2023-03-13T06:17:17;101388.44;;;5.33;59.47
31331;BME280;34067;39.548;-76.088;2023-03-13T06:19:46;101388.05;;;5.57;59.48
31331;BME280;34067;39.548;-76.088;2023-03-13T06:22:15;101387.24;;;5.21;60.04
31331;BME280;34067;39.548;-76.088;2023-03-13T06:24:44;101385.77;;;4.63;61.20
31331;BME280;34067;39.548;-76.088;2023-03-13T06:27:12;101385.89;;;5.02;60.78
31331;BME280;34067;39.548;-76.088;2023-03-13T06:29:40;101379.40;;;5.71;60.17
31331;BME280;34067;39.548;-76.088;2023-03-13T06:32:08;101376.42;;;5.75;60.24
31331;BME280;34067;39.548;-76.088;2023-03-13T06:34:36;101368.65;;;5.40;60.81
31331;BME280;34067;39.548;-76.088;2023-03-13T06:37:04;101361.09;;;5.41;59.90
31331;BME280;34067;39.548;-76.088;2023-03-13T06:39:32;101358.81;;;5.03;60.41
31331;BME280;34067;39.548;-76.088;2023-03-13T06:42:00;101354.60;;;5.29;60.07
31331;BME280;34067;39.548;-76.088;2023-03-13T06:44:28;101351.76;;;5.83;59.17
31331;BME280;34067;39.548;-76.088;2023-03-13T06:46:57;101348.55;;;5.87;59.35
31331;BME280;34067;39.548;-76.088;2023-03-13T06:49:24;101354.04;;;4.52;63.09
31331;BME280;34067;39.548;-76.088;2023-03-13T06:51:52;101343.31;;;5.08;62.20
31331;BME280;34067;39.548;-76.088;2023-03-13T06:54:21;101337.85;;;5.58;61.61
31331;BME280;34067;39.548;-76.088;2023-03-13T06:56:49;101337.82;;;5.07;61.89
31331;BME280;34067;39.548;-76.088;2023-03-13T06:59:17;101338.80;;;4.47;62.89
31331;BME280;34067;39.548;-76.088;2023-03-13T07:01:46;101335.78;;;4.53;64.06
31331;BME280;34067;39.548;-76.088;2023-03-13T07:04:14;101329.49;;;4.57;63.82
31331;BME280;34067;39.548;-76.088;2023-03-13T07:06:42;101326.46;;;2.94;68.06
31331;BME280;34067;39.548;-76.088;2023-03-13T07:09:09;101324.23;;;4.88;65.51
31331;BME280;34067;39.548;-76.088;2023-03-13T07:11:37;101319.03;;;4.59;65.48
31331;BME280;34067;39.548;-76.088;2023-03-13T07:14:05;101313.48;;;4.46;66.23
31331;BME280;34067;39.548;-76.088;2023-03-13T07:16:34;101306.52;;;5.32;65.33
31331;BME280;34067;39.548;-76.088;2023-03-13T07:19:02;101304.45;;;3.97;65.96
31331;BME280;34067;39.548;-76.088;2023-03-13T07:21:30;101300.22;;;3.44;68.35
31331;BME280;34067;39.548;-76.088;2023-03-13T07:23:58;101293.85;;;4.72;66.21
31331;BME280;34067;39.548;-76.088;2023-03-13T07:26:26;101297.40;;;4.44;67.62
31331;BME280;34067;39.548;-76.088;2023-03-13T07:28:55;101295.73;;;3.15;67.96
31331;BME280;34067;39.548;-76.088;2023-03-13T07:31:23;101291.19;;;4.70;66.84
31331;BME280;34067;39.548;-76.088;2023-03-13T07:33:53;101290.48;;;4.52;67.41
31331;BME280;34067;39.548;-76.088;2023-03-13T07:36:20;101291.10;;;4.00;68.90
31331;BME280;34067;39.548;-76.088;2023-03-13T07:38:49;101289.82;;;4.11;68.33
31331;BME280;34067;39.548;-76.088;2023-03-13T07:41:18;101286.39;;;4.41;67.31
31331;BME280;34067;39.548;-76.088;2023-03-13T07:43:46;101279.89;;;4.99;66.53
31331;BME280;34067;39.548;-76.088;2023-03-13T07:46:16;101272.38;;;4.71;66.57
31331;BME280;34067;39.548;-76.088;2023-03-13T07:48:45;101273.38;;;5.30;65.86
31331;BME280;34067;39.548;-76.088;2023-03-13T07:51:15;101268.72;;;4.92;65.86
31331;BME280;34067;39.548;-76.088;2023-03-13T07:53:44;101270.65;;;4.46;68.51
31331;BME280;34067;39.548;-76.088;2023-03-13T07:56:14;101268.43;;;5.01;67.43
31331;BME280;34067;39.548;-76.088;2023-03-13T07:58:43;101267.21;;;4.78;67.27
31331;BME280;34067;39.548;-76.088;2023-03-13T08:01:13;101262.76;;;5.01;67.18
31331;BME280;34067;39.548;-76.088;2023-03-13T08:03:43;101265.90;;;4.04;69.34
31331;BME280;34067;39.548;-76.088;2023-03-13T08:06:13;101262.45;;;3.90;70.79
31331;BME280;34067;39.548;-76.088;2023-03-13T08:08:42;101258.09;;;3.55;71.68
31331;BME280;34067;39.548;-76.088;2023-03-13T08:11:13;101258.08;;;3.46;73.47
31331;BME280;34067;39.548;-76.088;2023-03-13T08:13:42;101257.60;;;2.51;78.59
31331;BME280;34067;39.548;-76.088;2023-03-13T08:16:12;101255.82;;;2.19;81.57
31331;BME280;34067;39.548;-76.088;2023-03-13T08:18:43;101257.43;;;3.81;78.94
31331;BME280;34067;39.548;-76.088;2023-03-13T08:21:13;101256.05;;;3.42;78.20
31331;BME280;34067;39.548;-76.088;2023-03-13T08:23:42;101256.28;;;3.77;79.27
31331;BME280;34067;39.548;-76.088;2023-03-13T08:26:11;101257.75;;;4.05;77.63
31331;BME280;34067;39.548;-76.088;2023-03-13T08:28:41;101254.47;;;4.67;74.03
31331;BME280;34067;39.548;-76.088;2023-03-13T08:31:10;101259.49;;;4.77;73.39
31331;BME280;34067;39.548;-76.088;2023-03-13T08:33:39;101254.49;;;5.20;70.70
31331;BME280;34067;39.548;-76.088;2023-03-13T08:36:10;101254.00;;;4.66;72.07
31331;BME280;34067;39.548;-76.088;2023-03-13T08:38:39;101251.55;;;3.98;70.67
31331;BME280;34067;39.548;-76.088;2023-03-13T08:41:08;101252.71;;;4.60;71.35
31331;BME280;34067;39.548;-76.088;2023-03-13T08:43:36;101256.63;;;3.80;74.43
31331;BME280;34067;39.548;-76.088;2023-03-13T08:46:05;101252.97;;;3.99;75.58
31331;BME280;34067;39.548;-76.088;2023-03-13T08:48:33;101254.17;;;3.80;74.74
31331;BME280;34067;39.548;-76.088;2023-03-13T08:51:03;101246.86;;;4.43;75.10
31331;BME280;34067;39.548;-76.088;2023-03-13T08:53:33;101245.31;;;3.03;79.93
31331;BME280;34067;39.548;-76.088;2023-03-13T08:56:02;101242.10;;;2.80;82.71
31331;BME280;34067;39.548;-76.088;2023-03-13T08:58:30;101236.23;;;2.83;80.74
31331;BME280;34067;39.548;-76.088;2023-03-13T09:01:02;101239.01;;;2.84;82.12
31331;BME280;34067;39.548;-76.088;2023-03-13T09:03:32;101234.70;;;2.42;85.01
31331;BME280;34067;39.548;-76.088;2023-03-13T09:06:01;101237.16;;;3.69;79.51
31331;BME280;34067;39.548;-76.088;2023-03-13T09:08:30;101232.08;;;3.15;80.73
31331;BME280;34067;39.548;-76.088;2023-03-13T09:11:00;101225.47;;;2.27;83.07
31331;BME280;34067;39.548;-76.088;2023-03-13T09:13:29;101231.42;;;2.77;84.17
31331;BME280;34067;39.548;-76.088;2023-03-13T09:16:00;101244.35;;;3.22;81.67
31331;BME280;34067;39.548;-76.088;2023-03-13T09:18:29;101247.30;;;3.90;76.93
31331;BME280;34067;39.548;-76.088;2023-03-13T09:20:58;101247.41;;;4.07;74.81
31331;BME280;34067;39.548;-76.088;2023-03-13T09:23:27;101250.78;;;2.22;77.50
31331;BME280;34067;39.548;-76.088;2023-03-13T09:25:56;101240.41;;;5.41;72.14
31331;BME280;34067;39.548;-76.088;2023-03-13T09:28:25;101237.08;;;4.29;70.87
31331;BME280;34067;39.548;-76.088;2023-03-13T09:30:54;101238.48;;;4.64;70.33
31331;BME280;34067;39.548;-76.088;2023-03-13T09:33:22;101240.69;;;4.86;69.19
31331;BME280;34067;39.548;-76.088;2023-03-13T09:35:51;101249.49;;;3.74;72.29
31331;BME280;34067;39.548;-76.088;2023-03-13T09:38:20;101251.81;;;4.57;71.93
31331;BME280;34067;39.548;-76.088;2023-03-13T09:40:50;101257.14;;;4.57;72.08
31331;BME280;34067;39.548;-76.088;2023-03-13T09:43:27;101258.83;;;3.86;71.09
31331;BME280;34067;39.548;-76.088;2023-03-13T09:46:03;101253.06;;;4.76;70.01
31331;BME280;34067;39.548;-76.088;2023-03-13T09:48:36;101254.11;;;3.88;73.94
31331;BME280;34067;39.548;-76.088;2023-03-13T09:51:10;101257.18;;;3.86;73.23
31331;BME280;34067;39.548;-76.088;2023-03-13T09:53:43;101258.98;;;3.39;73.90
31331;BME280;34067;39.548;-76.088;2023-03-13T09:56:16;101257.79;;;4.23;74.01
31331;BME280;34067;39.548;-76.088;2023-03-13T09:58:50;101256.45;;;2.60;80.85
31331;BME280;34067;39.548;-76.088;2023-03-13T10:01:25;101258.23;;;3.56;77.99
31331;BME280;34067;39.548;-76.088;2023-03-13T10:04:03;101252.08;;;4.59;75.24
31331;BME280;34067;39.548;-76.088;2023-03-13T10:06:39;101243.81;;;3.85;74.57
31331;BME280;34067;39.548;-76.088;2023-03-13T10:09:17;101249.14;;;4.45;75.56
31331;BME280;34067;39.548;-76.088;2023-03-13T10:11:52;101248.94;;;3.56;79.29
31331;BME280;34067;39.548;-76.088;2023-03-13T10:14:29;101249.45;;;3.27;79.63
31331;BME280;34067;39.548;-76.088;2023-03-13T10:17:04;101256.76;;;3.30;81.70
31331;BME280;34067;39.548;-76.088;2023-03-13T10:19:36;101254.97;;;2.99;80.92
31331;BME280;34067;39.548;-76.088;2023-03-13T10:22:14;101250.68;;;3.02;77.63
31331;BME280;34067;39.548;-76.088;2023-03-13T10:24:50;101251.31;;;4.22;76.79
31331;BME280;34067;39.548;-76.088;2023-03-13T10:27:21;101252.31;;;3.58;77.43
31331;BME280;34067;39.548;-76.088;2023-03-13T10:29:49;101246.01;;;4.59;72.97
31331;BME280;34067;39.548;-76.088;2023-03-13T10:32:18;101247.21;;;4.05;74.45
31331;BME280;34067;39.548;-76.088;2023-03-13T10:34:55;101252.99;;;2.38;80.17
31331;BME280;34067;39.548;-76.088;2023-03-13T10:37:26;101255.71;;;4.67;76.73
31331;BME280;34067;39.548;-76.088;2023-03-13T10:39:57;101253.44;;;4.39;74.04
31331;BME280;34067;39.548;-76.088;2023-03-13T10:42:42;101257.36;;;4.49;73.50
31331;BME280;34067;39.548;-76.088;2023-03-13T10:45:14;101260.60;;;4.37;72.85
31331;BME280;34067;39.548;-76.088;2023-03-13T10:47:43;101263.13;;;4.84;72.41
31331;BME280;34067;39.548;-76.088;2023-03-13T10:50:17;101258.86;;;5.62;70.74
31331;BME280;34067;39.548;-76.088;2023-03-13T10:52:49;101263.97;;;4.69;71.24
31331;BME280;34067;39.548;-76.088;2023-03-13T10:55:18;101262.06;;;5.46;70.70
31331;BME280;34067;39.548;-76.088;2023-03-13T10:57:56;101259.96;;;5.24;69.86
31331;BME280;34067;39.548;-76.088;2023-03-13T11:00:33;101259.64;;;5.63;70.11
31331;BME280;34067;39.548;-76.088;2023-03-13T11:03:04;101259.00;;;5.26;69.76
31331;BME280;34067;39.548;-76.088;2023-03-13T11:05:37;101260.66;;;5.20;70.83
31331;BME280;34067;39.548;-76.088;2023-03-13T11:08:18;101262.92;;;5.35;70.63
31331;BME280;34067;39.548;-76.088;2023-03-13T11:10:53;101267.44;;;4.74;71.64
31331;BME280;34067;39.548;-76.088;2023-03-13T11:13:34;101277.20;;;3.90;75.61
31331;BME280;34067;39.548;-76.088;2023-03-13T11:16:15;101276.34;;;1.83;81.85
31331;BME280;34067;39.548;-76.088;2023-03-13T11:18:55;101282.26;;;3.13;78.70
31331;BME280;34067;39.548;-76.088;2023-03-13T11:21:36;101276.03;;;4.31;75.43
31331;BME280;34067;39.548;-76.088;2023-03-13T11:24:14;101276.43;;;4.18;73.49
31331;BME280;34067;39.548;-76.088;2023-03-13T11:26:51;101274.60;;;3.74;73.61
31331;BME280;34067;39.548;-76.088;2023-03-13T11:29:28;101273.01;;;3.61;77.90
31331;BME280;34067;39.548;-76.088;2023-03-13T11:32:09;101272.93;;;4.14;76.70
31331;BME280;34067;39.548;-76.088;2023-03-13T11:34:42;101273.89;;;3.78;78.49
31331;BME280;34067;39.548;-76.088;2023-03-13T11:37:16;101273.73;;;3.77;77.41
31331;BME280;34067;39.548;-76.088;2023-03-13T11:39:53;101274.97;;;4.01;76.18
31331;BME280;34067;39.548;-76.088;2023-03-13T11:42:43;101268.68;;;4.62;74.34
31331;BME280;34067;39.548;-76.088;2023-03-13T11:45:30;101270.07;;;5.03;72.89
31331;BME280;34067;39.548;-76.088;2023-03-13T11:48:07;101271.04;;;5.00;72.25
31331;BME280;34067;39.548;-76.088;2023-03-13T11:50:45;101268.38;;;4.80;72.04
31331;BME280;34067;39.548;-76.088;2023-03-13T11:53:29;101265.27;;;5.15;72.37
31331;BME280;34067;39.548;-76.088;2023-03-13T11:56:09;101271.05;;;5.16;70.99
31331;BME280;34067;39.548;-76.088;2023-03-13T11:58:53;101266.35;;;5.30;71.07
31331;BME280;34067;39.548;-76.088;2023-03-13T12:01:26;101266.51;;;4.83;70.42
31331;BME280;34067;39.548;-76.088;2023-03-13T12:03:58;101264.88;;;4.75;72.06
31331;BME280;34067;39.548;-76.088;2023-03-13T12:06:30;101265.93;;;4.38;73.35
31331;BME280;34067;39.548;-76.088;2023-03-13T12:09:05;101256.13;;;4.57;73.76
31331;BME280;34067;39.548;-76.088;2023-03-13T12:11:42;101258.72;;;4.03;74.05
31331;BME280;34067;39.548;-76.088;2023-03-13T12:14:17;101248.83;;;4.85;72.70
31331;BME280;34067;39.548;-76.088;2023-03-13T12:16:52;101243.94;;;4.95;72.12
31331;BME280;34067;39.548;-76.088;2023-03-13T12:19:28;101243.07;;;4.64;73.39
31331;BME280;34067;39.548;-76.088;2023-03-13T12:22:07;101241.28;;;3.97;72.16
31331;BME280;34067;39.548;-76.088;2023-03-13T12:24:43;101239.64;;;4.70;72.42
31331;BME280;34067;39.548;-76.088;2023-03-13T12:27:17;101237.43;;;3.93;73.45
31331;BME280;34067;39.548;-76.088;2023-03-13T12:29:54;101238.61;;;5.12;71.82
31331;BME280;34067;39.548;-76.088;2023-03-13T12:32:32;101244.26;;;4.36;74.45
31331;BME280;34067;39.548;-76.088;2023-03-13T12:35:14;101242.77;;;4.08;74.29
31331;BME280;34067;39.548;-76.088;2023-03-13T12:37:52;101242.05;;;4.86;73.25
31331;BME280;34067;39.548;-76.088;2023-03-13T12:40:27;101245.20;;;4.37;73.78
31331;BME280;34067;39.548;-76.088;2023-03-13T12:43:03;101247.71;;;4.35;72.38
31331;BME280;34067;39.548;-76.088;2023-03-13T12:45:44;101251.66;;;5.55;70.13
31331;BME280;34067;39.548;-76.088;2023-03-13T12:48:31;101253.71;;;4.98;71.76
31331;BME280;34067;39.548;-76.088;2023-03-13T12:51:13;101261.85;;;4.47;72.96
31331;BME280;34067;39.548;-76.088;2023-03-13T12:54:39;101257.31;;;5.11;71.39
31331;BME280;34067;39.548;-76.088;2023-03-13T12:57:23;101253.23;;;5.27;70.29
31331;BME280;34067;39.548;-76.088;2023-03-13T13:00:02;101255.61;;;5.09;69.05
31331;BME280;34067;39.548;-76.088;2023-03-13T13:02:31;101258.05;;;5.00;68.97